sensor_id;sensor_type;location;lat;lon;timestamp;temperature;humidity
77277;DHT22;66330;52.166;9.978;2023-02-28T00:00:11;3.00;57.70
77277;DHT22;66330;52.166;9.978;2023-02-28T00:02:40;3.10;57.80
77277;DHT22;66330;52.166;9.978;2023-02-28T00:05:07;3.20;57.90
77277;DHT22;66330;52.166;9.978;2023-02-28T00:07:33;3.20;57.90
77277;DHT22;66330;52.166;9.978;2023-02-28T00:09:59;3.60;58.20
77277;DHT22;66330;52.166;9.978;2023-02-28T00:12:26;3.20;57.80
77277;DHT22;66330;52.166;9.978;2023-02-28T00:14:52;3.40;57.70
77277;DHT22;66330;52.166;9.978;2023-02-28T00:17:18;3.30;57.90
77277;DHT22;66330;52.166;9.978;2023-02-28T00:19:49;3.30;57.80
77277;DHT22;66330;52.166;9.978;2023-02-28T00:22:20;3.10;57.70
77277;DHT22;66330;52.166;9.978;2023-02-28T00:24:46;2.90;57.60
77277;DHT22;66330;52.166;9.978;2023-02-28T00:27:13;2.80;57.50
77277;DHT22;66330;52.166;9.978;2023-02-28T00:29:39;2.80;57.50
77277;DHT22;66330;52.166;9.978;2023-02-28T00:32:05;2.70;57.50
77277;DHT22;66330;52.166;9.978;2023-02-28T00:34:31;2.60;57.50
77277;DHT22;66330;52.166;9.978;2023-02-28T00:37:04;2.90;57.90
77277;DHT22;66330;52.166;9.978;2023-02-28T00:39:30;2.40;57.80
77277;DHT22;66330;52.166;9.978;2023-02-28T00:41:55;2.20;57.80
77277;DHT22;66330;52.166;9.978;2023-02-28T00:44:21;2.10;57.90
77277;DHT22;66330;52.166;9.978;2023-02-28T00:46:47;2.10;58.10
77277;DHT22;66330;52.166;9.978;2023-02-28T00:49:13;1.90;58.20
77277;DHT22;66330;52.166;9.978;2023-02-28T00:51:40;1.80;58.30
77277;DHT22;66330;52.166;9.978;2023-02-28T00:54:05;1.70;58.40
77277;DHT22;66330;52.166;9.978;2023-02-28T00:56:31;1.80;58.60
77277;DHT22;66330;52.166;9.978;2023-02-28T00:58:56;1.80;58.70
77277;DHT22;66330;52.166;9.978;2023-02-28T01:01:23;1.50;58.50
77277;DHT22;66330;52.166;9.978;2023-02-28T01:03:49;1.60;58.80
77277;DHT22;66330;52.166;9.978;2023-02-28T01:06:15;1.40;58.80
77277;DHT22;66330;52.166;9.978;2023-02-28T01:08:40;1.30;58.80
77277;DHT22;66330;52.166;9.978;2023-02-28T01:11:11;1.10;58.80
77277;DHT22;66330;52.166;9.978;2023-02-28T01:13:37;1.10;58.90
77277;DHT22;66330;52.166;9.978;2023-02-28T01:16:03;1.30;59.00
77277;DHT22;66330;52.166;9.978;2023-02-28T01:18:28;1.10;58.90
77277;DHT22;66330;52.166;9.978;2023-02-28T01:20:54;0.80;58.60
77277;DHT22;66330;52.166;9.978;2023-02-28T01:23:21;1.00;59.20
77277;DHT22;66330;52.166;9.978;2023-02-28T01:25:49;0.60;59.10
77277;DHT22;66330;52.166;9.978;2023-02-28T01:28:15;0.80;59.40
77277;DHT22;66330;52.166;9.978;2023-02-28T01:30:41;0.80;59.60
77277;DHT22;66330;52.166;9.978;2023-02-28T01:33:07;0.60;59.60
77277;DHT22;66330;52.166;9.978;2023-02-28T01:35:33;0.50;59.60
77277;DHT22;66330;52.166;9.978;2023-02-28T01:37:59;0.30;59.70
77277;DHT22;66330;52.166;9.978;2023-02-28T01:40:25;0.50;59.80
77277;DHT22;66330;52.166;9.978;2023-02-28T01:42:50;0.40;59.90
77277;DHT22;66330;52.166;9.978;2023-02-28T01:47:52;-0.10;59.80
77277;DHT22;66330;52.166;9.978;2023-02-28T01:50:27;0.20;60.20
77277;DHT22;66330;52.166;9.978;2023-02-28T01:52:55;0.00;60.40
77277;DHT22;66330;52.166;9.978;2023-02-28T01:55:22;-0.50;60.10
77277;DHT22;66330;52.166;9.978;2023-02-28T01:57:52;0.40;61.10
77277;DHT22;66330;52.166;9.978;2023-02-28T02:00:22;-0.10;60.50
77277;DHT22;66330;52.166;9.978;2023-02-28T02:02:51;-0.10;60.60
77277;DHT22;66330;52.166;9.978;2023-02-28T02:05:22;-0.30;60.50
77277;DHT22;66330;52.166;9.978;2023-02-28T02:07:51;-0.20;60.50
77277;DHT22;66330;52.166;9.978;2023-02-28T02:10:25;-0.40;60.20
77277;DHT22;66330;52.166;9.978;2023-02-28T02:18:33;-0.60;60.90
77277;DHT22;66330;52.166;9.978;2023-02-28T02:29:00;-0.80;61.30
77277;DHT22;66330;52.166;9.978;2023-02-28T02:31:36;-0.60;61.80
77277;DHT22;66330;52.166;9.978;2023-02-28T02:34:48;-0.70;61.80
77277;DHT22;66330;52.166;9.978;2023-02-28T02:40:03;-0.80;62.20
77277;DHT22;66330;52.166;9.978;2023-02-28T02:43:08;-0.70;62.70
77277;DHT22;66330;52.166;9.978;2023-02-28T02:46:18;-0.50;63.20
77277;DHT22;66330;52.166;9.978;2023-02-28T02:48:46;-0.60;64.00
77277;DHT22;66330;52.166;9.978;2023-02-28T02:51:15;-0.60;63.20
77277;DHT22;66330;52.166;9.978;2023-02-28T02:53:56;-0.70;63.20
77277;DHT22;66330;52.166;9.978;2023-02-28T02:56:27;-0.80;63.10
77277;DHT22;66330;52.166;9.978;2023-02-28T02:58:57;-0.70;63.00
77277;DHT22;66330;52.166;9.978;2023-02-28T03:01:26;-0.80;62.80
77277;DHT22;66330;52.166;9.978;2023-02-28T03:03:59;-0.60;63.10
77277;DHT22;66330;52.166;9.978;2023-02-28T03:06:26;-0.70;63.10
77277;DHT22;66330;52.166;9.978;2023-02-28T03:08:52;-0.50;63.50
77277;DHT22;66330;52.166;9.978;2023-02-28T03:11:18;-0.70;63.50
77277;DHT22;66330;52.166;9.978;2023-02-28T03:14:54;-0.60;63.90
77277;DHT22;66330;52.166;9.978;2023-02-28T03:22:44;-0.40;63.90
77277;DHT22;66330;52.166;9.978;2023-02-28T03:25:23;-0.30;64.00
77277;DHT22;66330;52.166;9.978;2023-02-28T03:30:50;-0.40;63.70
77277;DHT22;66330;52.166;9.978;2023-02-28T03:33:39;-0.40;63.60
77277;DHT22;66330;52.166;9.978;2023-02-28T03:36:20;-0.50;63.30
77277;DHT22;66330;52.166;9.978;2023-02-28T03:41:20;-0.50;63.20
77277;DHT22;66330;52.166;9.978;2023-02-28T03:43:59;-0.40;63.40
77277;DHT22;66330;52.166;9.978;2023-02-28T03:46:31;-0.70;63.40
77277;DHT22;66330;52.166;9.978;2023-02-28T03:49:17;-0.70;63.60
77277;DHT22;66330;52.166;9.978;2023-02-28T03:51:45;-0.80;63.80
77277;DHT22;66330;52.166;9.978;2023-02-28T03:54:28;-0.80;64.00
77277;DHT22;66330;52.166;9.978;2023-02-28T03:57:22;-0.70;64.40
77277;DHT22;66330;52.166;9.978;2023-02-28T04:00:00;-0.80;64.30
77277;DHT22;66330;52.166;9.978;2023-02-28T04:02:29;-0.80;64.30
77277;DHT22;66330;52.166;9.978;2023-02-28T04:04:55;-0.70;64.50
77277;DHT22;66330;52.166;9.978;2023-02-28T04:07:21;-0.80;64.40
77277;DHT22;66330;52.166;9.978;2023-02-28T04:09:46;-0.80;64.40
77277;DHT22;66330;52.166;9.978;2023-02-28T04:12:13;-0.70;64.60
77277;DHT22;66330;52.166;9.978;2023-02-28T04:14:39;-0.70;64.50
77277;DHT22;66330;52.166;9.978;2023-02-28T04:17:05;-0.70;64.60
77277;DHT22;66330;52.166;9.978;2023-02-28T04:19:30;-0.70;64.60
77277;DHT22;66330;52.166;9.978;2023-02-28T04:21:56;-0.50;64.90
77277;DHT22;66330;52.166;9.978;2023-02-28T04:24:24;-0.50;64.90
77277;DHT22;66330;52.166;9.978;2023-02-28T04:26:52;-0.50;65.00
77277;DHT22;66330;52.166;9.978;2023-02-28T04:29:27;-0.70;64.90
77277;DHT22;66330;52.166;9.978;2023-02-28T04:31:54;-0.70;64.90
77277;DHT22;66330;52.166;9.978;2023-02-28T04:34:20;-0.30;65.20
77277;DHT22;66330;52.166;9.978;2023-02-28T04:36:48;-0.30;65.10
77277;DHT22;66330;52.166;9.978;2023-02-28T04:39:16;-0.30;65.90
77277;DHT22;66330;52.166;9.978;2023-02-28T04:41:44;-0.40;65.00
77277;DHT22;66330;52.166;9.978;2023-02-28T04:44:10;-0.40;65.20
77277;DHT22;66330;52.166;9.978;2023-02-28T04:46:36;-0.20;66.40
77277;DHT22;66330;52.166;9.978;2023-02-28T04:49:01;-0.20;65.60
77277;DHT22;66330;52.166;9.978;2023-02-28T04:51:27;0.30;65.70
77277;DHT22;66330;52.166;9.978;2023-02-28T04:53:52;0.10;65.80
77277;DHT22;66330;52.166;9.978;2023-02-28T04:56:18;0.40;66.00
77277;DHT22;66330;52.166;9.978;2023-02-28T04:58:44;0.50;65.80
77277;DHT22;66330;52.166;9.978;2023-02-28T05:01:24;0.50;65.60
77277;DHT22;66330;52.166;9.978;2023-02-28T05:03:51;0.70;65.70
77277;DHT22;66330;52.166;9.978;2023-02-28T05:06:17;0.50;65.40
77277;DHT22;66330;52.166;9.978;2023-02-28T05:08:43;0.80;65.60
77277;DHT22;66330;52.166;9.978;2023-02-28T05:11:22;0.70;65.20
77277;DHT22;66330;52.166;9.978;2023-02-28T05:13:51;0.90;65.30
77277;DHT22;66330;52.166;9.978;2023-02-28T05:16:17;0.80;64.80
77277;DHT22;66330;52.166;9.978;2023-02-28T05:18:43;1.00;64.80
77277;DHT22;66330;52.166;9.978;2023-02-28T05:21:24;0.80;64.30
77277;DHT22;66330;52.166;9.978;2023-02-28T05:23:50;1.20;64.50
77277;DHT22;66330;52.166;9.978;2023-02-28T05:26:16;0.80;63.90
77277;DHT22;66330;52.166;9.978;2023-02-28T05:28:41;0.60;63.70
77277;DHT22;66330;52.166;9.978;2023-02-28T05:31:10;0.60;63.70
77277;DHT22;66330;52.166;9.978;2023-02-28T05:33:36;0.80;63.90
77277;DHT22;66330;52.166;9.978;2023-02-28T05:36:01;0.50;63.50
77277;DHT22;66330;52.166;9.978;2023-02-28T05:38:27;0.40;63.40
77277;DHT22;66330;52.166;9.978;2023-02-28T05:40:52;0.40;63.30
77277;DHT22;66330;52.166;9.978;2023-02-28T05:43:18;0.60;63.60
77277;DHT22;66330;52.166;9.978;2023-02-28T05:45:44;0.20;63.10
77277;DHT22;66330;52.166;9.978;2023-02-28T05:48:10;0.30;63.40
77277;DHT22;66330;52.166;9.978;2023-02-28T05:50:35;0.60;63.80
77277;DHT22;66330;52.166;9.978;2023-02-28T05:53:01;-0.20;63.10
77277;DHT22;66330;52.166;9.978;2023-02-28T05:55:27;-0.10;63.30
77277;DHT22;66330;52.166;9.978;2023-02-28T05:57:52;0.10;63.70
77277;DHT22;66330;52.166;9.978;2023-02-28T06:00:18;-0.10;63.70
77277;DHT22;66330;52.166;9.978;2023-02-28T06:02:45;-0.10;63.70
77277;DHT22;66330;52.166;9.978;2023-02-28T06:05:14;-0.20;63.90
77277;DHT22;66330;52.166;9.978;2023-02-28T06:07:41;-0.30;64.00
77277;DHT22;66330;52.166;9.978;2023-02-28T06:10:07;-0.60;63.90
77277;DHT22;66330;52.166;9.978;2023-02-28T06:12:33;-0.20;64.50
77277;DHT22;66330;52.166;9.978;2023-02-28T06:14:58;-0.30;64.40
77277;DHT22;66330;52.166;9.978;2023-02-28T06:17:24;-0.60;64.10
77277;DHT22;66330;52.166;9.978;2023-02-28T06:19:51;-0.50;64.30
77277;DHT22;66330;52.166;9.978;2023-02-28T06:22:17;-0.60;64.30
77277;DHT22;66330;52.166;9.978;2023-02-28T06:24:42;-0.50;64.60
77277;DHT22;66330;52.166;9.978;2023-02-28T06:27:08;-0.80;64.30
77277;DHT22;66330;52.166;9.978;2023-02-28T06:29:34;-0.60;64.70
77277;DHT22;66330;52.166;9.978;2023-02-28T06:32:00;-0.70;63.80
77277;DHT22;66330;52.166;9.978;2023-02-28T06:34:26;-0.40;65.10
77277;DHT22;66330;52.166;9.978;2023-02-28T06:36:53;-0.70;65.00
77277;DHT22;66330;52.166;9.978;2023-02-28T06:39:19;-0.50;65.50
77277;DHT22;66330;52.166;9.978;2023-02-28T06:41:45;-0.40;65.80
77277;DHT22;66330;52.166;9.978;2023-02-28T06:44:15;-0.40;65.90
77277;DHT22;66330;52.166;9.978;2023-02-28T06:46:42;-0.20;66.20
77277;DHT22;66330;52.166;9.978;2023-02-28T06:49:08;-0.20;66.20
77277;DHT22;66330;52.166;9.978;2023-02-28T06:51:35;-0.10;66.40
77277;DHT22;66330;52.166;9.978;2023-02-28T06:54:01;-0.10;66.50
77277;DHT22;66330;52.166;9.978;2023-02-28T06:56:27;0.00;66.60
77277;DHT22;66330;52.166;9.978;2023-02-28T06:58:52;0.20;66.60
77277;DHT22;66330;52.166;9.978;2023-02-28T07:01:19;0.30;66.60
77277;DHT22;66330;52.166;9.978;2023-02-28T07:03:45;0.40;66.50
77277;DHT22;66330;52.166;9.978;2023-02-28T07:06:11;0.60;66.60
77277;DHT22;66330;52.166;9.978;2023-02-28T07:08:37;0.60;66.40
77277;DHT22;66330;52.166;9.978;2023-02-28T07:11:03;0.90;66.60
77277;DHT22;66330;52.166;9.978;2023-02-28T07:13:28;1.00;66.60
77277;DHT22;66330;52.166;9.978;2023-02-28T07:15:59;1.40;66.90
77277;DHT22;66330;52.166;9.978;2023-02-28T07:18:26;1.50;66.80
77277;DHT22;66330;52.166;9.978;2023-02-28T07:20:52;1.70;66.50
77277;DHT22;66330;52.166;9.978;2023-02-28T07:23:18;2.00;66.40
77277;DHT22;66330;52.166;9.978;2023-02-28T07:25:44;1.70;65.40
77277;DHT22;66330;52.166;9.978;2023-02-28T07:28:11;2.30;65.40
77277;DHT22;66330;52.166;9.978;2023-02-28T07:30:37;2.40;64.80
77277;DHT22;66330;52.166;9.978;2023-02-28T07:33:02;2.70;64.50
77277;DHT22;66330;52.166;9.978;2023-02-28T07:35:29;2.40;63.90
77277;DHT22;66330;52.166;9.978;2023-02-28T07:37:55;2.30;62.80
77277;DHT22;66330;52.166;9.978;2023-02-28T07:40:22;2.30;63.50
77277;DHT22;66330;52.166;9.978;2023-02-28T07:42:47;2.40;63.60
77277;DHT22;66330;52.166;9.978;2023-02-28T07:45:13;2.30;63.50
77277;DHT22;66330;52.166;9.978;2023-02-28T07:47:40;2.40;63.60
77277;DHT22;66330;52.166;9.978;2023-02-28T07:50:08;2.30;63.50
77277;DHT22;66330;52.166;9.978;2023-02-28T07:52:35;2.40;63.60
77277;DHT22;66330;52.166;9.978;2023-02-28T07:55:01;2.90;64.10
77277;DHT22;66330;52.166;9.978;2023-02-28T07:57:26;2.80;62.90
77277;DHT22;66330;52.166;9.978;2023-02-28T07:59:52;3.00;64.10
77277;DHT22;66330;52.166;9.978;2023-02-28T08:02:18;3.20;64.20
77277;DHT22;66330;52.166;9.978;2023-02-28T08:04:44;3.50;64.50
77277;DHT22;66330;52.166;9.978;2023-02-28T08:07:12;3.90;64.60
77277;DHT22;66330;52.166;9.978;2023-02-28T08:09:39;4.40;64.40
77277;DHT22;66330;52.166;9.978;2023-02-28T08:12:05;5.00;63.20
77277;DHT22;66330;52.166;9.978;2023-02-28T08:14:30;5.00;62.00
77277;DHT22;66330;52.166;9.978;2023-02-28T08:16:57;6.00;61.90
77277;DHT22;66330;52.166;9.978;2023-02-28T08:19:23;6.40;60.90
77277;DHT22;66330;52.166;9.978;2023-02-28T08:21:49;6.90;59.60
77277;DHT22;66330;52.166;9.978;2023-02-28T08:24:14;7.70;59.60
77277;DHT22;66330;52.166;9.978;2023-02-28T08:26:40;7.60;58.30
77277;DHT22;66330;52.166;9.978;2023-02-28T08:29:05;7.90;58.00
77277;DHT22;66330;52.166;9.978;2023-02-28T08:31:32;8.20;57.30
77277;DHT22;66330;52.166;9.978;2023-02-28T08:33:58;8.40;56.60
77277;DHT22;66330;52.166;9.978;2023-02-28T08:36:25;8.50;56.00
77277;DHT22;66330;52.166;9.978;2023-02-28T08:38:51;8.70;55.50
77277;DHT22;66330;52.166;9.978;2023-02-28T08:41:17;8.70;55.10
77277;DHT22;66330;52.166;9.978;2023-02-28T08:43:43;8.80;54.70
77277;DHT22;66330;52.166;9.978;2023-02-28T08:46:12;9.00;54.10
77277;DHT22;66330;52.166;9.978;2023-02-28T08:48:38;9.00;53.70
77277;DHT22;66330;52.166;9.978;2023-02-28T08:51:06;9.00;53.90
77277;DHT22;66330;52.166;9.978;2023-02-28T08:53:32;9.20;53.70
77277;DHT22;66330;52.166;9.978;2023-02-28T08:56:04;9.30;53.50
77277;DHT22;66330;52.166;9.978;2023-02-28T08:58:30;9.40;53.30
77277;DHT22;66330;52.166;9.978;2023-02-28T09:00:57;9.50;52.60
77277;DHT22;66330;52.166;9.978;2023-02-28T09:03:23;9.60;52.40
77277;DHT22;66330;52.166;9.978;2023-02-28T09:06:01;9.80;52.90
77277;DHT22;66330;52.166;9.978;2023-02-28T09:08:29;9.90;51.80
77277;DHT22;66330;52.166;9.978;2023-02-28T09:10:55;10.10;50.70
77277;DHT22;66330;52.166;9.978;2023-02-28T09:13:26;9.80;50.60
77277;DHT22;66330;52.166;9.978;2023-02-28T09:15:52;9.70;50.60
77277;DHT22;66330;52.166;9.978;2023-02-28T09:18:18;9.60;50.40
77277;DHT22;66330;52.166;9.978;2023-02-28T09:20:45;9.50;50.40
77277;DHT22;66330;52.166;9.978;2023-02-28T09:23:12;9.80;50.70
77277;DHT22;66330;52.166;9.978;2023-02-28T09:25:38;10.00;49.90
77277;DHT22;66330;52.166;9.978;2023-02-28T09:28:10;10.30;49.80
77277;DHT22;66330;52.166;9.978;2023-02-28T09:30:37;10.60;49.50
77277;DHT22;66330;52.166;9.978;2023-02-28T09:33:03;10.90;49.40
77277;DHT22;66330;52.166;9.978;2023-02-28T09:35:29;11.00;48.50
77277;DHT22;66330;52.166;9.978;2023-02-28T09:37:56;11.10;48.60
77277;DHT22;66330;52.166;9.978;2023-02-28T09:40:25;11.30;48.60
77277;DHT22;66330;52.166;9.978;2023-02-28T09:42:53;11.40;48.20
77277;DHT22;66330;52.166;9.978;2023-02-28T09:47:57;11.70;47.90
77277;DHT22;66330;52.166;9.978;2023-02-28T09:52:53;11.90;47.10
77277;DHT22;66330;52.166;9.978;2023-02-28T09:55:30;12.30;46.70
77277;DHT22;66330;52.166;9.978;2023-02-28T09:57:57;12.90;46.40
77277;DHT22;66330;52.166;9.978;2023-02-28T10:00:32;12.40;45.80
77277;DHT22;66330;52.166;9.978;2023-02-28T10:05:52;12.60;45.50
77277;DHT22;66330;52.166;9.978;2023-02-28T10:08:27;12.70;45.30
77277;DHT22;66330;52.166;9.978;2023-02-28T10:11:00;12.80;44.90
77277;DHT22;66330;52.166;9.978;2023-02-28T10:16:20;12.90;44.50
77277;DHT22;66330;52.166;9.978;2023-02-28T10:21:35;13.40;44.70
77277;DHT22;66330;52.166;9.978;2023-02-28T10:26:37;14.20;43.50
77277;DHT22;66330;52.166;9.978;2023-02-28T10:29:03;14.80;42.40
77277;DHT22;66330;52.166;9.978;2023-02-28T10:31:28;15.40;41.60
77277;DHT22;66330;52.166;9.978;2023-02-28T10:33:55;15.90;40.20
77277;DHT22;66330;52.166;9.978;2023-02-28T10:36:21;16.20;39.40
77277;DHT22;66330;52.166;9.978;2023-02-28T10:38:48;16.90;39.20
77277;DHT22;66330;52.166;9.978;2023-02-28T10:41:16;17.40;38.40
77277;DHT22;66330;52.166;9.978;2023-02-28T10:43:43;17.90;37.20
77277;DHT22;66330;52.166;9.978;2023-02-28T10:48:45;18.30;35.20
77277;DHT22;66330;52.166;9.978;2023-02-28T10:51:15;18.70;34.60
77277;DHT22;66330;52.166;9.978;2023-02-28T10:53:54;18.70;34.00
77277;DHT22;66330;52.166;9.978;2023-02-28T10:56:22;18.90;33.50
77277;DHT22;66330;52.166;9.978;2023-02-28T10:59:00;19.20;34.10
77277;DHT22;66330;52.166;9.978;2023-02-28T11:03:55;19.80;32.50
77277;DHT22;66330;52.166;9.978;2023-02-28T11:06:33;18.90;31.10
77277;DHT22;66330;52.166;9.978;2023-02-28T11:11:43;17.40;31.00
77277;DHT22;66330;52.166;9.978;2023-02-28T11:16:47;16.90;32.10
77277;DHT22;66330;52.166;9.978;2023-02-28T11:19:26;17.20;32.20
77277;DHT22;66330;52.166;9.978;2023-02-28T11:21:56;18.20;32.00
77277;DHT22;66330;52.166;9.978;2023-02-28T11:24:29;19.00;31.60
77277;DHT22;66330;52.166;9.978;2023-02-28T11:26:55;19.60;30.80
77277;DHT22;66330;52.166;9.978;2023-02-28T11:29:24;19.80;30.00
77277;DHT22;66330;52.166;9.978;2023-02-28T11:32:21;20.00;29.60
77277;DHT22;66330;52.166;9.978;2023-02-28T11:35:01;20.60;29.50
77277;DHT22;66330;52.166;9.978;2023-02-28T11:37:28;21.00;29.20
77277;DHT22;66330;52.166;9.978;2023-02-28T11:39:55;21.60;29.10
77277;DHT22;66330;52.166;9.978;2023-02-28T11:45:41;22.60;28.10
77277;DHT22;66330;52.166;9.978;2023-02-28T11:48:32;23.10;28.20
77277;DHT22;66330;52.166;9.978;2023-02-28T11:56:29;23.80;27.10
77277;DHT22;66330;52.166;9.978;2023-02-28T12:10:22;24.50;26.40
77277;DHT22;66330;52.166;9.978;2023-02-28T12:12:54;23.90;25.20
77277;DHT22;66330;52.166;9.978;2023-02-28T12:15:50;23.10;25.00
77277;DHT22;66330;52.166;9.978;2023-02-28T12:23:56;19.60;25.90
77277;DHT22;66330;52.166;9.978;2023-02-28T12:26:41;18.30;26.00
77277;DHT22;66330;52.166;9.978;2023-02-28T12:29:28;17.50;26.50
77277;DHT22;66330;52.166;9.978;2023-02-28T12:32:05;16.70;26.70
77277;DHT22;66330;52.166;9.978;2023-02-28T12:34:35;16.30;27.50
77277;DHT22;66330;52.166;9.978;2023-02-28T12:37:09;16.80;28.30
77277;DHT22;66330;52.166;9.978;2023-02-28T12:39:40;17.30;28.00
77277;DHT22;66330;52.166;9.978;2023-02-28T12:42:12;18.00;28.20
77277;DHT22;66330;52.166;9.978;2023-02-28T12:45:40;18.70;27.80
77277;DHT22;66330;52.166;9.978;2023-02-28T12:47:42;18.20;26.70
77277;DHT22;66330;52.166;9.978;2023-02-28T12:50:12;17.80;26.80
77277;DHT22;66330;52.166;9.978;2023-02-28T12:52:45;17.10;26.60
77277;DHT22;66330;52.166;9.978;2023-02-28T13:09:09;18.20;27.30
77277;DHT22;66330;52.166;9.978;2023-02-28T13:19:19;19.70;27.20
77277;DHT22;66330;52.166;9.978;2023-02-28T13:21:47;20.00;27.00
77277;DHT22;66330;52.166;9.978;2023-02-28T13:34:38;21.70;25.80
77277;DHT22;66330;52.166;9.978;2023-02-28T13:39:53;21.90;25.00
77277;DHT22;66330;52.166;9.978;2023-02-28T13:42:23;21.90;25.00
77277;DHT22;66330;52.166;9.978;2023-02-28T13:47:44;22.20;24.90
77277;DHT22;66330;52.166;9.978;2023-02-28T13:58:47;22.60;24.30
77277;DHT22;66330;52.166;9.978;2023-02-28T14:06:33;22.50;24.40
77277;DHT22;66330;52.166;9.978;2023-02-28T14:11:36;22.50;24.00
77277;DHT22;66330;52.166;9.978;2023-02-28T14:14:04;22.40;24.00
77277;DHT22;66330;52.166;9.978;2023-02-28T14:19:20;22.10;23.80
77277;DHT22;66330;52.166;9.978;2023-02-28T14:35:22;21.90;23.90
77277;DHT22;66330;52.166;9.978;2023-02-28T14:37:53;21.80;23.50
77277;DHT22;66330;52.166;9.978;2023-02-28T14:40:31;21.70;23.70
77277;DHT22;66330;52.166;9.978;2023-02-28T14:43:05;21.60;23.70
77277;DHT22;66330;52.166;9.978;2023-02-28T14:45:35;21.40;23.70
77277;DHT22;66330;52.166;9.978;2023-02-28T14:48:05;21.10;23.60
77277;DHT22;66330;52.166;9.978;2023-02-28T14:50:36;20.90;23.60
77277;DHT22;66330;52.166;9.978;2023-02-28T14:53:02;20.40;23.80
77277;DHT22;66330;52.166;9.978;2023-02-28T14:55:34;20.10;24.00
77277;DHT22;66330;52.166;9.978;2023-02-28T14:58:05;20.00;24.20
77277;DHT22;66330;52.166;9.978;2023-02-28T15:00:34;19.90;24.40
77277;DHT22;66330;52.166;9.978;2023-02-28T15:03:29;19.80;24.60
77277;DHT22;66330;52.166;9.978;2023-02-28T15:05:58;19.80;24.70
77277;DHT22;66330;52.166;9.978;2023-02-28T15:08:24;19.70;24.90
77277;DHT22;66330;52.166;9.978;2023-02-28T15:11:13;19.40;24.60
77277;DHT22;66330;52.166;9.978;2023-02-28T15:13:43;19.50;24.70
77277;DHT22;66330;52.166;9.978;2023-02-28T15:16:23;19.40;25.00
77277;DHT22;66330;52.166;9.978;2023-02-28T15:18:51;19.00;24.60
77277;DHT22;66330;52.166;9.978;2023-02-28T15:33:24;18.70;24.90
77277;DHT22;66330;52.166;9.978;2023-02-28T15:35:50;17.80;24.30
77277;DHT22;66330;52.166;9.978;2023-02-28T15:38:25;17.60;24.80
77277;DHT22;66330;52.166;9.978;2023-02-28T15:40:52;17.40;25.20
77277;DHT22;66330;52.166;9.978;2023-02-28T15:44:13;17.20;25.60
77277;DHT22;66330;52.166;9.978;2023-02-28T15:46:44;17.10;25.90
77277;DHT22;66330;52.166;9.978;2023-02-28T15:49:19;17.00;26.10
77277;DHT22;66330;52.166;9.978;2023-02-28T15:51:45;16.80;26.20
77277;DHT22;66330;52.166;9.978;2023-02-28T15:54:19;16.70;26.40
77277;DHT22;66330;52.166;9.978;2023-02-28T15:56:49;16.50;26.40
77277;DHT22;66330;52.166;9.978;2023-02-28T15:59:19;16.20;26.40
77277;DHT22;66330;52.166;9.978;2023-02-28T16:01:45;16.70;27.00
77277;DHT22;66330;52.166;9.978;2023-02-28T16:04:17;15.60;26.70
77277;DHT22;66330;52.166;9.978;2023-02-28T16:09:17;14.70;27.10
77277;DHT22;66330;52.166;9.978;2023-02-28T16:11:48;14.40;27.20
77277;DHT22;66330;52.166;9.978;2023-02-28T16:14:24;14.10;27.50
77277;DHT22;66330;52.166;9.978;2023-02-28T16:16:52;13.70;28.20
77277;DHT22;66330;52.166;9.978;2023-02-28T16:19:19;13.20;28.00
77277;DHT22;66330;52.166;9.978;2023-02-28T16:21:45;12.90;28.20
77277;DHT22;66330;52.166;9.978;2023-02-28T16:24:11;12.70;28.70
77277;DHT22;66330;52.166;9.978;2023-02-28T16:26:38;11.90;28.40
77277;DHT22;66330;52.166;9.978;2023-02-28T16:29:05;11.40;28.80
77277;DHT22;66330;52.166;9.978;2023-02-28T16:31:35;11.00;29.20
77277;DHT22;66330;52.166;9.978;2023-02-28T16:34:02;10.60;29.60
77277;DHT22;66330;52.166;9.978;2023-02-28T16:36:29;10.20;29.70
77277;DHT22;66330;52.166;9.978;2023-02-28T16:38:55;9.80;31.10
77277;DHT22;66330;52.166;9.978;2023-02-28T16:41:25;9.80;32.30
77277;DHT22;66330;52.166;9.978;2023-02-28T16:43:53;9.20;32.10
77277;DHT22;66330;52.166;9.978;2023-02-28T16:46:20;8.90;32.60
77277;DHT22;66330;52.166;9.978;2023-02-28T16:48:46;8.60;33.00
77277;DHT22;66330;52.166;9.978;2023-02-28T16:51:16;8.40;33.60
77277;DHT22;66330;52.166;9.978;2023-02-28T16:53:43;8.10;34.10
77277;DHT22;66330;52.166;9.978;2023-02-28T16:56:19;7.90;34.60
77277;DHT22;66330;52.166;9.978;2023-02-28T16:58:46;7.70;35.10
77277;DHT22;66330;52.166;9.978;2023-02-28T17:01:13;7.40;35.40
77277;DHT22;66330;52.166;9.978;2023-02-28T17:03:39;7.20;35.80
77277;DHT22;66330;52.166;9.978;2023-02-28T17:06:08;7.00;36.00
77277;DHT22;66330;52.166;9.978;2023-02-28T17:08:41;6.90;36.70
77277;DHT22;66330;52.166;9.978;2023-02-28T17:11:08;6.70;37.10
77277;DHT22;66330;52.166;9.978;2023-02-28T17:13:34;6.50;37.40
77277;DHT22;66330;52.166;9.978;2023-02-28T17:16:00;6.20;37.50
77277;DHT22;66330;52.166;9.978;2023-02-28T17:18:26;6.20;38.00
77277;DHT22;66330;52.166;9.978;2023-02-28T17:20:59;6.10;38.30
77277;DHT22;66330;52.166;9.978;2023-02-28T17:23:25;5.90;38.50
77277;DHT22;66330;52.166;9.978;2023-02-28T17:25:50;6.10;38.70
77277;DHT22;66330;52.166;9.978;2023-02-28T17:28:22;5.60;39.20
77277;DHT22;66330;52.166;9.978;2023-02-28T17:30:48;5.50;39.30
77277;DHT22;66330;52.166;9.978;2023-02-28T17:33:15;5.40;39.90
77277;DHT22;66330;52.166;9.978;2023-02-28T17:35:40;5.30;40.20
77277;DHT22;66330;52.166;9.978;2023-02-28T17:38:17;5.20;40.50
77277;DHT22;66330;52.166;9.978;2023-02-28T17:40:43;5.20;41.00
77277;DHT22;66330;52.166;9.978;2023-02-28T17:43:09;5.00;41.10
77277;DHT22;66330;52.166;9.978;2023-02-28T17:45:35;4.90;41.40
77277;DHT22;66330;52.166;9.978;2023-02-28T17:48:01;4.80;41.70
77277;DHT22;66330;52.166;9.978;2023-02-28T17:50:27;4.70;41.90
77277;DHT22;66330;52.166;9.978;2023-02-28T17:52:52;4.60;42.10
77277;DHT22;66330;52.166;9.978;2023-02-28T17:55:18;4.80;42.50
77277;DHT22;66330;52.166;9.978;2023-02-28T17:57:46;4.40;42.50
77277;DHT22;66330;52.166;9.978;2023-02-28T18:00:14;4.30;42.80
77277;DHT22;66330;52.166;9.978;2023-02-28T18:02:41;4.20;43.00
77277;DHT22;66330;52.166;9.978;2023-02-28T18:05:07;4.10;43.20
77277;DHT22;66330;52.166;9.978;2023-02-28T18:07:33;4.10;43.40
77277;DHT22;66330;52.166;9.978;2023-02-28T18:09:59;4.00;43.50
77277;DHT22;66330;52.166;9.978;2023-02-28T18:12:25;3.90;43.70
77277;DHT22;66330;52.166;9.978;2023-02-28T18:14:51;3.80;43.90
77277;DHT22;66330;52.166;9.978;2023-02-28T18:17:17;3.70;44.00
77277;DHT22;66330;52.166;9.978;2023-02-28T18:19:42;3.60;43.90
77277;DHT22;66330;52.166;9.978;2023-02-28T18:22:08;3.60;44.40
77277;DHT22;66330;52.166;9.978;2023-02-28T18:24:34;3.70;44.70
77277;DHT22;66330;52.166;9.978;2023-02-28T18:27:00;3.40;44.70
77277;DHT22;66330;52.166;9.978;2023-02-28T18:29:27;3.10;44.80
77277;DHT22;66330;52.166;9.978;2023-02-28T18:31:54;3.30;45.20
77277;DHT22;66330;52.166;9.978;2023-02-28T18:34:20;3.30;45.30
77277;DHT22;66330;52.166;9.978;2023-02-28T18:36:46;3.10;45.30